KWRB/WRB METAR and TAF weather

Enter ICAO airport designator
Station Type Date Time Source
KWRB METAR 2020/01/27 16:56 UTC NOAA

KWRB 271656Z 27005KT 10SM BKN013 OVC034 11/08 A2998 RMK AO2A CIG 011 RWY15 SLPNO T01100084


Station Type Date Time Source
KWRB Decoded METAR 2020/01/27 16:56 UTC NOAA

Warner Robins Air Force Base, GA, United States (KWRB) 32-38N 083-36W
Jan 27, 2020 - 11:56 AM EST / 2020.01.27 1656 UTC
Wind: from the W (270 degrees) at 6 MPH (5 KT):0
Visibility: 10 mile(s):0
Sky conditions: overcast
Temperature: 51.8 F (11.0 C)
Dew Point: 47.1 F (8.4 C)
Relative Humidity: 83%
Pressure (altimeter): 29.98 in. Hg (1015 hPa)
ob: KWRB 271656Z 27005KT 10SM BKN013 OVC034 11/08 A2998 RMK AO2A CIG 011 RWY15 SLPNO T01100084
cycle: 17

Station Type Date Time Source
KWRB TAF 2020/01/27 15:58 UTC NOAA

TAF
AMD KWRB 271500Z 2715/2819 VRB06KT 9999 BKN009 QNH2997INS
BECMG 2717/2718 27012KT 9999 BKN020 QNH2996INS
BECMG 2720/2721 28009KT 9999 BKN030 QNH2989INS
BECMG 2723/2724 VRB06KT 9999 FEW022 QNH2993INS TX14/2717Z TN04/2811Z

Example: see airport list